createdAt,value
2022-08-30T00:02:25.229Z,31.45
2022-08-30T00:04:55.264Z,31.08
2022-08-30T00:07:23.463Z,32.13
2022-08-30T00:09:51.387Z,31.77
2022-08-30T00:12:20.957Z,31.05
2022-08-30T00:14:49.132Z,31.25
2022-08-30T00:17:17.152Z,30.85
2022-08-30T00:19:45.070Z,30.85
2022-08-30T00:22:15.866Z,31.00
2022-08-30T00:24:43.772Z,32.05
2022-08-30T00:27:11.887Z,31.83
2022-08-30T00:29:39.875Z,31.40
2022-08-30T00:32:07.964Z,32.42
2022-08-30T00:34:35.990Z,31.50
2022-08-30T00:37:04.250Z,32.10
2022-08-30T00:39:33.750Z,32.35
2022-08-30T00:42:01.736Z,31.50
2022-08-30T00:44:29.755Z,31.20
2022-08-30T00:46:57.830Z,31.00
2022-08-30T00:49:26.707Z,31.48
2022-08-30T00:51:55.119Z,31.45
2022-08-30T00:54:23.577Z,31.85
2022-08-30T00:56:56.050Z,29.95
2022-08-30T00:59:25.474Z,30.15
2022-08-30T01:01:53.967Z,30.63
2022-08-30T01:04:25.205Z,31.00
2022-08-30T01:06:54.033Z,30.20
2022-08-30T01:09:22.605Z,30.85
2022-08-30T01:11:50.824Z,30.10
2022-08-30T01:14:22.172Z,30.65
2022-08-30T01:16:56.276Z,30.15
2022-08-30T01:19:35.560Z,29.98
2022-08-30T01:22:09.947Z,29.83
2022-08-30T01:24:39.656Z,30.55
2022-08-30T01:27:07.648Z,30.33
2022-08-30T01:29:35.691Z,30.50
2022-08-30T01:32:06.358Z,30.73
2022-08-30T01:34:34.336Z,30.27
2022-08-30T01:37:03.051Z,29.88
2022-08-30T01:39:31.381Z,28.98
2022-08-30T01:42:01.026Z,29.85
2022-08-30T01:44:29.441Z,29.90
2022-08-30T01:46:57.365Z,29.92
2022-08-30T01:49:27.617Z,30.00
2022-08-30T01:52:00.826Z,30.05
2022-08-30T01:54:35.922Z,30.00
2022-08-30T01:57:08.521Z,30.33
2022-08-30T01:59:36.619Z,30.63
2022-08-30T02:02:05.581Z,30.55
2022-08-30T02:04:33.772Z,30.67
2022-08-30T02:07:01.678Z,30.35
2022-08-30T02:09:29.822Z,29.75
2022-08-30T02:11:57.997Z,30.90
2022-08-30T02:14:27.639Z,30.75
2022-08-30T02:16:56.865Z,30.73
2022-08-30T02:19:24.973Z,30.90
2022-08-30T02:21:53.257Z,31.38
2022-08-30T02:24:21.269Z,30.98
2022-08-30T02:26:49.331Z,30.60
2022-08-30T02:29:17.417Z,31.50
2022-08-30T02:31:47.115Z,31.92
2022-08-30T02:34:15.172Z,31.67
2022-08-30T02:36:43.316Z,32.83
2022-08-30T02:39:12.848Z,32.67
2022-08-30T02:41:41.840Z,31.80
2022-08-30T02:44:10.851Z,31.48
2022-08-30T02:46:39.433Z,33.30
2022-08-30T02:49:30.283Z,33.08
2022-08-30T02:51:57.999Z,33.28
2022-08-30T02:54:26.478Z,33.92
2022-08-30T02:56:54.396Z,33.63
2022-08-30T02:59:22.367Z,33.65
2022-08-30T03:01:50.480Z,35.28
2022-08-30T03:04:23.324Z,34.47
2022-08-30T03:06:55.421Z,35.15
2022-08-30T03:09:23.687Z,34.60
2022-08-30T03:11:51.661Z,35.05
2022-08-30T03:14:19.608Z,36.15
2022-08-30T03:16:47.789Z,35.60
2022-08-30T03:19:15.762Z,35.88
2022-08-30T03:21:45.988Z,34.92
2022-08-30T03:24:14.612Z,36.00
2022-08-30T03:26:46.190Z,35.55
2022-08-30T03:29:14.729Z,36.15
2022-08-30T03:31:52.490Z,35.78
2022-08-30T03:34:21.878Z,35.28
2022-08-30T03:36:52.703Z,35.50
2022-08-30T03:39:22.088Z,36.15
2022-08-30T03:41:50.406Z,34.97
2022-08-30T03:44:20.023Z,35.75
2022-08-30T03:46:48.175Z,36.03
2022-08-30T03:49:16.605Z,34.92
2022-08-30T03:51:44.551Z,36.00
2022-08-30T03:54:13.939Z,35.20
2022-08-30T03:56:42.430Z,34.88
2022-08-30T03:59:10.792Z,34.13
2022-08-30T04:01:39.034Z,34.65
2022-08-30T04:04:06.942Z,34.28
2022-08-30T04:06:35.315Z,35.67
2022-08-30T04:09:03.470Z,35.40
2022-08-30T04:11:32.848Z,34.88
2022-08-30T04:14:01.046Z,34.35
2022-08-30T04:16:29.353Z,34.17
2022-08-30T04:18:57.427Z,34.45
2022-08-30T04:21:25.441Z,34.33
2022-08-30T04:23:53.704Z,33.78
2022-08-30T04:26:21.970Z,33.22
2022-08-30T04:28:51.268Z,32.92
2022-08-30T04:31:20.221Z,33.10
2022-08-30T04:33:48.201Z,33.35
2022-08-30T04:36:16.168Z,33.67
2022-08-30T04:38:44.142Z,33.00
2022-08-30T04:41:16.317Z,33.95
2022-08-30T04:43:44.535Z,33.75
2022-08-30T04:46:16.164Z,34.55
2022-08-30T04:48:45.131Z,34.17
2022-08-30T04:51:16.613Z,34.30
2022-08-30T04:53:45.010Z,35.10
2022-08-30T04:56:16.518Z,35.45
2022-08-30T04:58:45.046Z,34.97
2022-08-30T05:01:17.628Z,35.00
2022-08-30T05:03:48.232Z,34.72
2022-08-30T05:06:17.204Z,33.47
2022-08-30T05:08:46.649Z,33.78
2022-08-30T05:11:16.082Z,33.08
2022-08-30T05:13:44.714Z,31.80
2022-08-30T05:16:17.909Z,33.40
2022-08-30T05:18:46.266Z,31.80
2022-08-30T05:21:16.412Z,32.33
2022-08-30T05:23:46.091Z,32.45
2022-08-30T05:26:16.030Z,31.08
2022-08-30T05:28:44.723Z,31.90
2022-08-30T05:31:19.843Z,31.35
2022-08-30T05:33:48.889Z,31.20
2022-08-30T05:36:19.541Z,31.40
2022-08-30T05:38:48.080Z,30.95
2022-08-30T05:41:16.410Z,30.27
2022-08-30T05:43:44.553Z,29.63
2022-08-30T05:46:19.283Z,29.83
2022-08-30T05:48:50.838Z,30.50
2022-08-30T05:51:25.556Z,30.45
2022-08-30T05:53:55.028Z,29.67
2022-08-30T05:56:25.856Z,30.02
2022-08-30T05:58:54.266Z,29.30
2022-08-30T06:01:27.092Z,29.75
2022-08-30T06:04:02.954Z,29.77
2022-08-30T06:06:34.313Z,28.70
2022-08-30T06:09:05.036Z,28.95
2022-08-30T06:11:34.458Z,28.95
2022-08-30T06:14:03.425Z,28.23
2022-08-30T06:16:31.939Z,28.33
2022-08-30T06:19:01.962Z,28.10
2022-08-30T06:21:32.047Z,28.75
2022-08-30T06:24:00.137Z,28.63
2022-08-30T06:26:29.859Z,29.98
2022-08-30T06:28:59.461Z,28.65
2022-08-30T06:31:27.824Z,28.50
2022-08-30T06:33:56.776Z,28.80
2022-08-30T06:36:26.870Z,28.60
2022-08-30T06:38:58.255Z,28.17
2022-08-30T06:41:28.283Z,27.38
2022-08-30T06:43:57.811Z,27.42
2022-08-30T06:46:28.519Z,26.98
2022-08-30T06:48:57.631Z,27.58
2022-08-30T06:51:30.010Z,25.75
2022-08-30T06:53:58.722Z,24.70
2022-08-30T06:56:31.123Z,23.60
2022-08-30T06:58:59.516Z,23.25
2022-08-30T07:01:29.859Z,22.80
2022-08-30T07:04:01.123Z,22.15
2022-08-30T07:06:30.968Z,20.88
2022-08-30T07:08:58.934Z,21.67
2022-08-30T07:11:28.986Z,20.25
2022-08-30T07:13:57.784Z,19.80
2022-08-30T07:16:26.078Z,20.90
2022-08-30T07:18:55.267Z,19.52
2022-08-30T07:21:26.744Z,19.17
2022-08-30T07:23:57.416Z,17.52
2022-08-30T07:26:28.549Z,16.67
2022-08-30T07:28:57.955Z,16.00
2022-08-30T07:31:27.555Z,15.30
2022-08-30T07:33:55.663Z,15.02
2022-08-30T07:36:24.725Z,13.88
2022-08-30T07:38:53.744Z,14.25
2022-08-30T07:41:25.783Z,14.98
2022-08-30T07:43:54.600Z,13.60
2022-08-30T07:46:23.192Z,12.05
2022-08-30T07:48:51.272Z,9.55
2022-08-30T07:51:21.655Z,9.13
2022-08-30T07:53:49.718Z,7.47
2022-08-30T07:56:17.651Z,7.57
2022-08-30T07:58:47.113Z,6.43
2022-08-30T08:01:15.294Z,5.03
2022-08-30T08:03:44.446Z,4.75
2022-08-30T08:06:15.065Z,5.20
2022-08-30T08:08:45.841Z,5.00
2022-08-30T08:11:16.629Z,4.95
2022-08-30T08:13:53.292Z,3.38
2022-08-30T08:16:23.837Z,3.75
2022-08-30T08:18:52.419Z,3.83
2022-08-30T08:21:20.513Z,3.28
2022-08-30T08:23:48.907Z,3.33
2022-08-30T08:26:17.095Z,3.50
2022-08-30T08:28:47.203Z,3.00
2022-08-30T08:31:17.190Z,2.60
2022-08-30T08:33:45.769Z,2.88
2022-08-30T08:36:14.077Z,2.65
2022-08-30T08:38:42.262Z,2.85
2022-08-30T08:41:22.424Z,2.47
2022-08-30T08:43:51.785Z,2.45
2022-08-30T08:46:27.378Z,2.65
2022-08-30T08:49:00.728Z,2.55
2022-08-30T08:51:49.849Z,2.25
2022-08-30T08:54:26.182Z,2.45
2022-08-30T08:56:55.068Z,2.45
2022-08-30T08:59:24.705Z,2.15
2022-08-30T09:01:54.106Z,2.17
2022-08-30T09:04:34.540Z,2.20
2022-08-30T09:07:06.611Z,2.10
2022-08-30T09:09:37.824Z,2.42
2022-08-30T09:12:10.588Z,2.35
2022-08-30T09:14:46.155Z,2.33
2022-08-30T09:17:16.930Z,2.10
2022-08-30T09:19:47.064Z,1.92
2022-08-30T09:22:26.910Z,2.00
2022-08-30T09:25:02.190Z,2.00
2022-08-30T09:27:35.485Z,2.10
2022-08-30T09:30:14.201Z,2.38
2022-08-30T09:32:45.657Z,1.80
2022-08-30T09:35:19.251Z,2.30
2022-08-30T09:37:54.368Z,2.00
2022-08-30T09:40:35.170Z,1.85
2022-08-30T09:43:11.979Z,2.05
2022-08-30T09:45:47.145Z,2.28
2022-08-30T09:48:33.179Z,2.85
2022-08-30T09:51:47.056Z,3.00
2022-08-30T09:54:22.785Z,2.83
2022-08-30T09:57:01.232Z,2.50
2022-08-30T09:59:51.816Z,2.20
2022-08-30T10:02:39.973Z,2.40
2022-08-30T10:05:16.958Z,2.22
2022-08-30T10:07:53.566Z,2.42
2022-08-30T10:10:31.686Z,2.17
2022-08-30T10:13:07.478Z,2.30
2022-08-30T10:15:41.874Z,2.08
2022-08-30T10:18:17.922Z,2.03
2022-08-30T10:20:55.119Z,2.53
2022-08-30T10:23:29.739Z,2.15
2022-08-30T10:26:13.199Z,2.15
2022-08-30T10:28:46.823Z,3.03
2022-08-30T10:31:29.054Z,2.38
2022-08-30T10:34:06.450Z,2.25
2022-08-30T10:36:43.769Z,2.17
2022-08-30T10:39:19.047Z,2.10
2022-08-30T10:41:52.940Z,2.17
2022-08-30T10:44:24.746Z,2.00
2022-08-30T10:47:05.304Z,2.33
2022-08-30T10:49:40.640Z,2.40
2022-08-30T10:52:23.273Z,2.40
2022-08-30T10:54:58.923Z,2.13
2022-08-30T10:57:27.682Z,2.22
2022-08-30T11:00:05.759Z,2.25
2022-08-30T11:03:03.037Z,2.00
2022-08-30T11:05:48.897Z,2.05
2022-08-30T11:08:28.509Z,2.08
2022-08-30T11:11:03.580Z,2.05
2022-08-30T11:13:35.643Z,2.00
2022-08-30T11:16:07.404Z,1.90
2022-08-30T11:18:44.068Z,2.20
2022-08-30T11:21:24.150Z,2.80
2022-08-30T11:24:02.158Z,1.80
2022-08-30T11:26:57.443Z,2.75
2022-08-30T11:29:41.305Z,1.92
2022-08-30T11:32:27.455Z,2.00
2022-08-30T11:34:58.591Z,2.05
2022-08-30T11:37:41.210Z,2.20
2022-08-30T11:40:17.304Z,2.13
2022-08-30T11:42:49.204Z,2.00
2022-08-30T11:45:52.357Z,1.77
2022-08-30T11:48:53.467Z,2.38
2022-08-30T11:52:23.690Z,1.80
2022-08-30T11:54:57.805Z,2.30
2022-08-30T11:57:32.620Z,1.90
2022-08-30T12:00:08.368Z,2.10
2022-08-30T12:02:59.257Z,1.90
2022-08-30T12:05:59.725Z,2.00
2022-08-30T12:08:56.493Z,2.00
2022-08-30T12:12:03.927Z,2.25
2022-08-30T12:14:48.835Z,1.95
2022-08-30T12:17:43.987Z,2.30
2022-08-30T12:20:24.308Z,2.35
2022-08-30T12:22:53.661Z,1.83
2022-08-30T12:25:27.735Z,2.28
2022-08-30T12:28:14.342Z,1.80
2022-08-30T12:30:42.926Z,1.83
2022-08-30T12:33:29.558Z,1.98
2022-08-30T12:35:59.657Z,1.98
2022-08-30T12:38:29.720Z,2.80
2022-08-30T12:41:00.590Z,2.00
2022-08-30T12:43:40.726Z,2.40
2022-08-30T12:46:12.847Z,2.13
2022-08-30T12:48:44.539Z,2.13
2022-08-30T12:51:35.239Z,2.13
2022-08-30T12:54:16.516Z,2.30
2022-08-30T12:56:54.653Z,1.90
2022-08-30T12:59:58.494Z,2.10
2022-08-30T13:02:29.963Z,2.15
2022-08-30T13:04:58.477Z,2.00
2022-08-30T13:07:30.433Z,1.70
2022-08-30T13:10:15.229Z,2.50
2022-08-30T13:13:02.223Z,2.30
2022-08-30T13:15:34.757Z,2.20
2022-08-30T13:18:13.350Z,2.50
2022-08-30T13:20:46.504Z,2.60
2022-08-30T13:23:23.825Z,2.35
2022-08-30T13:25:51.980Z,2.72
2022-08-30T13:28:21.299Z,1.98
2022-08-30T13:30:50.817Z,2.38
2022-08-30T13:33:19.062Z,2.60
2022-08-30T13:35:47.574Z,2.28
2022-08-30T13:38:16.026Z,2.42
2022-08-30T13:40:44.598Z,2.58
2022-08-30T13:43:12.926Z,1.80
2022-08-30T13:45:41.935Z,2.53
2022-08-30T13:48:13.557Z,2.20
2022-08-30T13:50:42.940Z,2.50
2022-08-30T13:53:11.167Z,2.35
2022-08-30T13:55:40.607Z,2.50
2022-08-30T13:58:11.860Z,2.63
2022-08-30T14:00:41.832Z,2.50
2022-08-30T14:03:13.344Z,2.53
2022-08-30T14:05:57.229Z,2.53
2022-08-30T14:08:52.074Z,2.60
2022-08-30T14:11:22.475Z,2.22
2022-08-30T14:16:41.651Z,2.50
2022-08-30T14:19:12.581Z,2.50
2022-08-30T14:21:40.831Z,2.35
2022-08-30T14:24:09.694Z,2.40
2022-08-30T14:26:40.645Z,2.67
2022-08-30T14:29:10.806Z,2.42
2022-08-30T14:31:39.445Z,2.83
2022-08-30T14:34:09.459Z,2.30
2022-08-30T14:36:43.461Z,2.80
2022-08-30T14:39:14.560Z,2.33
2022-08-30T14:41:45.043Z,2.25
2022-08-30T14:44:13.994Z,2.60
2022-08-30T14:46:42.663Z,2.28
2022-08-30T14:49:11.024Z,2.28
2022-08-30T14:51:41.760Z,2.53
2022-08-30T14:54:10.075Z,2.67
2022-08-30T14:56:39.314Z,2.08
2022-08-30T14:59:07.982Z,2.28
2022-08-30T15:01:37.632Z,2.13
2022-08-30T15:04:07.496Z,2.20
2022-08-30T15:06:36.155Z,2.17
2022-08-30T15:09:06.627Z,2.40
2022-08-30T15:11:35.398Z,2.60
2022-08-30T15:14:03.328Z,2.25
2022-08-30T15:16:34.873Z,2.45
2022-08-30T15:19:03.385Z,2.30
2022-08-30T15:21:33.825Z,1.92
2022-08-30T15:24:11.624Z,2.20
2022-08-30T15:26:43.519Z,2.67
2022-08-30T15:29:14.753Z,2.30
2022-08-30T15:31:44.173Z,2.20
2022-08-30T15:34:27.919Z,2.20
2022-08-30T15:36:57.533Z,2.30
2022-08-30T15:39:27.242Z,2.40
2022-08-30T15:42:01.284Z,1.90
2022-08-30T15:44:32.268Z,2.15
2022-08-30T15:47:03.916Z,2.20
2022-08-30T15:49:34.722Z,2.22
2022-08-30T15:52:05.787Z,2.15
2022-08-30T15:54:37.428Z,2.20
2022-08-30T15:57:06.047Z,2.10
2022-08-30T15:59:34.203Z,2.20
2022-08-30T16:02:02.266Z,2.17
2022-08-30T16:04:31.253Z,2.10
2022-08-30T16:06:59.405Z,2.28
2022-08-30T16:09:32.455Z,2.00
2022-08-30T16:12:04.636Z,2.33
2022-08-30T16:14:33.722Z,2.10
2022-08-30T16:17:02.162Z,2.30
2022-08-30T16:19:30.419Z,1.98
2022-08-30T16:21:58.834Z,2.67
2022-08-30T16:24:26.906Z,2.20
2022-08-30T16:26:55.061Z,2.15
2022-08-30T16:29:24.423Z,2.17
2022-08-30T16:31:52.999Z,2.30
2022-08-30T16:34:22.243Z,2.20
2022-08-30T16:36:50.858Z,2.00
2022-08-30T16:39:19.541Z,2.10
2022-08-30T16:41:48.506Z,2.10
2022-08-30T16:44:17.931Z,2.20
2022-08-30T16:46:53.437Z,2.03
2022-08-30T16:49:22.668Z,2.28
2022-08-30T16:51:51.542Z,1.83
2022-08-30T16:54:20.794Z,2.10
2022-08-30T16:56:51.197Z,2.13
2022-08-30T16:59:19.276Z,1.88
2022-08-30T17:01:49.316Z,2.05
2022-08-30T17:07:06.726Z,2.30
2022-08-30T17:09:49.136Z,2.03
2022-08-30T17:12:17.106Z,1.90
2022-08-30T17:14:45.164Z,1.92
2022-08-30T17:17:26.525Z,2.40
2022-08-30T17:19:54.759Z,2.05
2022-08-30T17:22:22.976Z,2.40
2022-08-30T17:24:52.304Z,2.10
2022-08-30T17:27:23.658Z,1.90
2022-08-30T17:29:52.000Z,2.10
2022-08-30T17:32:21.999Z,1.70
2022-08-30T17:34:53.499Z,2.20
2022-08-30T17:37:21.546Z,2.17
2022-08-30T17:39:50.417Z,1.70
2022-08-30T17:42:19.281Z,2.03
2022-08-30T17:44:47.708Z,1.80
2022-08-30T17:47:16.097Z,2.00
2022-08-30T17:49:46.127Z,2.10
2022-08-30T17:52:14.771Z,2.05
2022-08-30T17:54:43.519Z,2.00
2022-08-30T17:57:13.255Z,1.70
2022-08-30T17:59:42.124Z,2.05
2022-08-30T18:02:11.388Z,1.80
2022-08-30T18:04:41.686Z,1.92
2022-08-30T18:07:12.337Z,1.92
2022-08-30T18:09:40.890Z,2.03
2022-08-30T18:12:09.053Z,1.65
2022-08-30T18:14:39.322Z,1.90
2022-08-30T18:17:07.960Z,2.05
2022-08-30T18:19:37.276Z,1.67
2022-08-30T18:22:16.325Z,1.95
2022-08-30T18:24:44.805Z,2.00
2022-08-30T18:27:13.434Z,2.15
2022-08-30T18:29:41.602Z,2.42
2022-08-30T18:32:09.761Z,2.10
2022-08-30T18:34:37.850Z,2.20
2022-08-30T18:37:06.058Z,1.92
2022-08-30T18:39:41.479Z,2.15
2022-08-30T18:42:10.617Z,2.22
2022-08-30T18:44:39.872Z,2.20
2022-08-30T18:47:09.419Z,2.20
2022-08-30T18:49:38.398Z,2.30
2022-08-30T18:52:08.306Z,2.38
2022-08-30T18:54:41.167Z,2.20
2022-08-30T18:57:11.920Z,2.58
2022-08-30T18:59:41.845Z,2.53
2022-08-30T19:02:13.183Z,2.30
2022-08-30T19:04:42.784Z,2.22
2022-08-30T19:07:13.277Z,2.10
2022-08-30T19:09:45.385Z,2.45
2022-08-30T19:12:13.687Z,2.45
2022-08-30T19:14:42.153Z,2.33
2022-08-30T19:17:12.682Z,2.30
2022-08-30T19:19:48.845Z,2.22
2022-08-30T19:22:19.150Z,2.42
2022-08-30T19:24:49.942Z,2.40
2022-08-30T19:27:21.580Z,2.42
2022-08-30T19:30:11.399Z,2.40
2022-08-30T19:32:39.469Z,2.33
2022-08-30T19:35:08.858Z,2.90
2022-08-30T19:37:37.273Z,2.60
2022-08-30T19:40:09.625Z,2.70
2022-08-30T19:45:27.896Z,3.10
2022-08-30T19:47:57.758Z,2.70
2022-08-30T19:50:25.985Z,3.30
2022-08-30T19:52:54.965Z,2.72
2022-08-30T19:55:28.694Z,3.15
2022-08-30T19:57:59.579Z,3.03
2022-08-30T20:00:30.593Z,2.90
2022-08-30T20:03:01.948Z,2.85
2022-08-30T20:05:30.591Z,2.80
2022-08-30T20:07:59.387Z,2.90
2022-08-30T20:10:31.285Z,3.13
2022-08-30T20:12:59.304Z,2.88
2022-08-30T20:15:27.686Z,2.97
2022-08-30T20:18:05.737Z,3.25
2022-08-30T20:20:36.783Z,3.55
2022-08-30T20:23:05.652Z,3.60
2022-08-30T20:24:23.330Z,2.00
2022-08-30T20:25:36.100Z,3.38
2022-08-30T20:28:04.922Z,3.47
2022-08-30T20:30:33.280Z,3.33
2022-08-30T20:33:06.935Z,3.80
2022-08-30T20:35:38.349Z,3.58
2022-08-30T20:38:06.962Z,3.90
2022-08-30T20:40:38.934Z,3.88
2022-08-30T20:43:07.940Z,4.43
2022-08-30T20:45:35.943Z,4.22
2022-08-30T20:48:05.732Z,4.90
2022-08-30T20:50:33.707Z,5.13
2022-08-30T20:53:02.147Z,6.80
2022-08-30T20:55:30.238Z,7.43
2022-08-30T20:58:00.325Z,9.27
2022-08-30T21:00:28.541Z,10.07
2022-08-30T21:02:57.073Z,11.55
2022-08-30T21:05:25.252Z,13.95
2022-08-30T21:07:53.383Z,13.23
2022-08-30T21:10:23.525Z,15.63
2022-08-30T21:12:52.103Z,15.55
2022-08-30T21:15:38.477Z,16.60
2022-08-30T21:18:06.895Z,16.60
2022-08-30T21:20:37.100Z,17.73
2022-08-30T21:23:05.518Z,18.40
2022-08-30T21:25:34.210Z,19.27
2022-08-30T21:28:02.241Z,20.38
2022-08-30T21:30:31.659Z,21.38
2022-08-30T21:33:02.783Z,22.38
2022-08-30T21:35:48.546Z,24.02
2022-08-30T21:38:16.882Z,24.08
2022-08-30T21:40:45.335Z,23.70
2022-08-30T21:43:13.701Z,25.08
2022-08-30T21:45:44.435Z,26.40
2022-08-30T21:48:14.528Z,26.17
2022-08-30T21:50:43.373Z,25.45
2022-08-30T21:53:15.809Z,26.75
2022-08-30T21:55:45.816Z,26.77
2022-08-30T21:58:16.272Z,26.85
2022-08-30T22:00:45.775Z,26.60
2022-08-30T22:03:14.172Z,25.73
2022-08-30T22:05:45.982Z,25.75
2022-08-30T22:08:14.072Z,25.52
2022-08-30T22:10:44.569Z,25.02
2022-08-30T22:13:14.109Z,23.77
2022-08-30T22:15:42.001Z,23.42
2022-08-30T22:18:11.501Z,22.83
2022-08-30T22:20:42.502Z,20.63
2022-08-30T22:23:12.482Z,20.75
2022-08-30T22:25:46.883Z,17.60
2022-08-30T22:28:16.240Z,18.83
2022-08-30T22:30:44.554Z,18.40
2022-08-30T22:33:14.410Z,17.15
2022-08-30T22:35:43.381Z,16.08
2022-08-30T22:38:12.609Z,14.60
2022-08-30T22:40:45.704Z,13.10
2022-08-30T22:43:13.722Z,13.02
2022-08-30T22:45:41.921Z,11.52
2022-08-30T22:48:14.977Z,8.68
2022-08-30T22:50:42.977Z,8.07
2022-08-30T22:53:11.728Z,7.90
2022-08-30T22:55:42.060Z,7.03
2022-08-30T22:58:10.449Z,6.47
2022-08-30T23:00:40.758Z,6.82
2022-08-30T23:03:21.642Z,5.45
2022-08-30T23:05:49.579Z,5.75
2022-08-30T23:08:17.557Z,6.03
2022-08-30T23:10:45.700Z,5.57
2022-08-30T23:13:13.713Z,5.75
2022-08-30T23:15:41.782Z,4.95
2022-08-30T23:18:09.781Z,5.35
2022-08-30T23:20:39.331Z,5.43
2022-08-30T23:23:06.203Z,4.95
2022-08-30T23:25:52.620Z,5.55
2022-08-30T23:28:39.644Z,5.22
2022-08-30T23:31:28.997Z,5.15
2022-08-30T23:34:15.290Z,4.85
2022-08-30T23:37:02.205Z,5.40
2022-08-30T23:39:47.388Z,5.05
2022-08-30T23:42:33.904Z,5.45
2022-08-30T23:45:19.262Z,5.68
2022-08-30T23:48:04.737Z,5.10
2022-08-30T23:50:50.403Z,5.03
2022-08-30T23:53:37.338Z,4.93
2022-08-30T23:56:22.677Z,5.00
2022-08-30T23:59:08.199Z,5.65
